createdAt,value
2023-03-15T00:00:36.201Z,43.32
2023-03-15T00:03:04.436Z,42.19
2023-03-15T00:05:31.924Z,41.61
2023-03-15T00:07:59.922Z,40.65
2023-03-15T00:10:26.164Z,41.95
2023-03-15T00:12:53.417Z,42.36
2023-03-15T00:18:11.930Z,42.97
2023-03-15T00:20:39.086Z,42.96
2023-03-15T00:23:14.186Z,43.54
2023-03-15T00:25:40.569Z,43.66
2023-03-15T00:28:06.821Z,43.69
2023-03-15T00:30:33.065Z,43.45
2023-03-15T00:32:59.334Z,43.86
2023-03-15T00:35:25.722Z,44.40
2023-03-15T00:37:56.084Z,44.73
2023-03-15T00:40:23.271Z,44.59
2023-03-15T00:42:52.101Z,44.58
2023-03-15T00:45:19.620Z,44.83
2023-03-15T00:47:48.725Z,44.63
2023-03-15T00:50:15.156Z,44.88
2023-03-15T00:52:43.086Z,44.93
2023-03-15T00:55:13.385Z,45.32
2023-03-15T00:57:40.654Z,45.28
2023-03-15T01:00:09.715Z,45.51
2023-03-15T01:02:37.533Z,46.17
2023-03-15T01:05:06.380Z,45.71
2023-03-15T01:07:35.620Z,45.51
2023-03-15T01:10:02.539Z,45.94
2023-03-15T01:12:29.444Z,45.61
2023-03-15T01:14:55.932Z,45.81
2023-03-15T01:17:25.594Z,46.31
2023-03-15T01:19:53.101Z,46.21
2023-03-15T01:22:20.233Z,46.33
2023-03-15T01:24:50.786Z,46.03
2023-03-15T01:27:19.757Z,46.60
2023-03-15T01:29:46.095Z,46.56
2023-03-15T01:32:12.394Z,46.54
2023-03-15T01:34:38.790Z,46.17
2023-03-15T01:37:07.463Z,46.20
2023-03-15T01:39:34.032Z,46.76
2023-03-15T01:42:00.352Z,46.79
2023-03-15T01:44:49.308Z,46.16
2023-03-15T01:47:17.467Z,46.51
2023-03-15T01:49:49.230Z,46.13
2023-03-15T01:52:17.406Z,46.80
2023-03-15T01:54:49.585Z,46.76
2023-03-15T01:57:22.734Z,46.52
2023-03-15T01:59:56.614Z,46.78
2023-03-15T02:02:24.564Z,46.60
2023-03-15T02:05:12.493Z,47.03
2023-03-15T02:07:51.748Z,47.06
2023-03-15T02:10:35.559Z,47.17
2023-03-15T02:13:02.476Z,46.65
2023-03-15T02:15:29.014Z,46.81
2023-03-15T02:17:55.336Z,47.43
2023-03-15T02:20:27.631Z,47.14
2023-03-15T02:23:00.198Z,46.91
2023-03-15T02:25:46.426Z,47.54
2023-03-15T02:28:14.617Z,46.79
2023-03-15T02:30:41.116Z,47.39
2023-03-15T02:33:11.399Z,47.11
2023-03-15T02:35:37.730Z,47.88
2023-03-15T02:38:05.017Z,47.22
2023-03-15T02:40:32.484Z,47.86
2023-03-15T02:43:05.789Z,47.50
2023-03-15T02:45:38.006Z,47.34
2023-03-15T02:48:05.905Z,47.33
2023-03-15T02:50:32.534Z,48.13
2023-03-15T02:53:06.674Z,47.81
2023-03-15T02:55:33.479Z,48.02
2023-03-15T02:58:06.950Z,47.54
2023-03-15T03:00:34.997Z,47.72
2023-03-15T03:03:02.450Z,47.74
2023-03-15T03:05:28.780Z,47.84
2023-03-15T03:07:55.092Z,47.30
2023-03-15T03:10:21.733Z,47.44
2023-03-15T03:12:54.736Z,47.21
2023-03-15T03:15:21.520Z,47.85
2023-03-15T03:17:51.319Z,47.55
2023-03-15T03:20:20.698Z,47.91
2023-03-15T03:22:47.045Z,47.63
2023-03-15T03:25:13.515Z,47.71
2023-03-15T03:27:40.664Z,47.42
2023-03-15T03:30:08.385Z,48.05
2023-03-15T03:32:35.449Z,48.05
2023-03-15T03:35:03.487Z,47.81
2023-03-15T03:37:30.808Z,47.29
2023-03-15T03:39:57.811Z,47.54
2023-03-15T03:42:24.055Z,47.65
2023-03-15T03:44:50.742Z,47.71
2023-03-15T03:47:17.038Z,47.32
2023-03-15T03:49:43.350Z,47.84
2023-03-15T03:52:09.659Z,47.71
2023-03-15T03:54:35.937Z,47.91
2023-03-15T03:57:02.253Z,47.51
2023-03-15T03:59:28.758Z,47.84
2023-03-15T04:01:55.266Z,48.19
2023-03-15T04:04:21.700Z,47.83
2023-03-15T04:06:48.057Z,47.52
2023-03-15T04:09:15.149Z,47.61
2023-03-15T04:11:42.637Z,47.72
2023-03-15T04:14:13.063Z,47.48
2023-03-15T04:16:43.101Z,47.50
2023-03-15T04:19:09.417Z,48.03
2023-03-15T04:21:35.759Z,47.48
2023-03-15T04:24:02.238Z,47.31
2023-03-15T04:26:29.035Z,47.83
2023-03-15T04:28:59.565Z,47.36
2023-03-15T04:31:29.611Z,47.81
2023-03-15T04:33:56.153Z,48.20
2023-03-15T04:36:22.909Z,47.99
2023-03-15T04:38:50.052Z,47.79
2023-03-15T04:41:16.926Z,47.72
2023-03-15T04:43:43.856Z,47.59
2023-03-15T04:46:10.336Z,47.83
2023-03-15T04:48:37.312Z,48.02
2023-03-15T04:51:04.075Z,47.58
2023-03-15T04:53:30.750Z,48.01
2023-03-15T04:55:57.224Z,47.53
2023-03-15T04:58:23.484Z,47.60
2023-03-15T05:00:49.833Z,48.02
2023-03-15T05:03:16.347Z,47.63
2023-03-15T05:05:45.324Z,47.63
2023-03-15T05:08:11.676Z,47.91
2023-03-15T05:10:38.895Z,47.86
2023-03-15T05:13:05.167Z,47.48
2023-03-15T05:15:31.804Z,47.91
2023-03-15T05:17:58.294Z,47.94
2023-03-15T05:20:25.201Z,47.62
2023-03-15T05:22:53.423Z,47.62
2023-03-15T05:25:19.671Z,47.58
2023-03-15T05:27:46.636Z,47.73
2023-03-15T05:30:15.399Z,47.74
2023-03-15T05:32:44.670Z,47.89
2023-03-15T05:35:11.615Z,47.35
2023-03-15T05:37:38.258Z,47.31
2023-03-15T05:40:08.089Z,47.46
2023-03-15T05:42:35.847Z,47.58
2023-03-15T05:45:02.212Z,47.29
2023-03-15T05:47:28.731Z,47.60
2023-03-15T05:49:54.986Z,47.44
2023-03-15T05:52:21.269Z,47.79
2023-03-15T05:54:47.527Z,47.53
2023-03-15T05:57:14.030Z,47.79
2023-03-15T05:59:40.336Z,47.51
2023-03-15T06:02:08.117Z,47.46
2023-03-15T06:04:34.713Z,47.25
2023-03-15T06:07:01.183Z,47.32
2023-03-15T06:09:30.481Z,47.40
2023-03-15T06:11:57.449Z,47.51
2023-03-15T06:14:23.786Z,47.49
2023-03-15T06:16:50.475Z,47.50
2023-03-15T06:19:16.912Z,47.44
2023-03-15T06:21:44.471Z,47.77
2023-03-15T06:24:10.741Z,47.93
2023-03-15T06:26:37.007Z,47.95
2023-03-15T06:29:03.263Z,47.61
2023-03-15T06:31:31.745Z,47.59
2023-03-15T06:34:01.181Z,47.65
2023-03-15T06:36:29.851Z,47.94
2023-03-15T06:38:56.199Z,47.58
2023-03-15T06:41:22.541Z,47.65
2023-03-15T06:43:49.294Z,47.93
2023-03-15T06:46:16.677Z,47.82
2023-03-15T06:48:44.332Z,47.53
2023-03-15T06:51:10.720Z,47.85
2023-03-15T06:53:38.197Z,47.49
2023-03-15T06:56:04.801Z,47.63
2023-03-15T06:58:36.269Z,47.92
2023-03-15T07:01:03.144Z,47.83
2023-03-15T07:03:37.529Z,47.91
2023-03-15T07:06:07.391Z,47.63
2023-03-15T07:08:34.077Z,47.91
2023-03-15T07:11:00.650Z,47.33
2023-03-15T07:13:26.949Z,47.80
2023-03-15T07:15:56.877Z,47.48
2023-03-15T07:18:23.250Z,47.82
2023-03-15T07:20:58.918Z,47.35
2023-03-15T07:23:25.234Z,47.79
2023-03-15T07:25:55.522Z,47.81
2023-03-15T07:28:26.619Z,47.69
2023-03-15T07:30:57.058Z,47.30
2023-03-15T07:33:24.342Z,47.89
2023-03-15T07:35:51.566Z,47.55
2023-03-15T07:38:22.037Z,47.68
2023-03-15T07:40:49.627Z,47.64
2023-03-15T07:43:16.593Z,47.77
2023-03-15T07:45:49.393Z,47.59
2023-03-15T07:48:15.878Z,47.44
2023-03-15T07:50:49.517Z,47.69
2023-03-15T07:53:17.898Z,47.38
2023-03-15T07:55:47.985Z,47.03
2023-03-15T08:00:56.923Z,47.52
2023-03-15T08:03:25.308Z,47.95
2023-03-15T08:05:51.634Z,47.74
2023-03-15T08:08:20.754Z,47.70
2023-03-15T08:10:47.124Z,47.12
2023-03-15T08:13:13.625Z,47.37
2023-03-15T08:15:42.304Z,47.23
2023-03-15T08:18:08.734Z,46.66
2023-03-15T08:20:35.150Z,46.84
2023-03-15T08:23:02.223Z,47.07
2023-03-15T08:25:28.945Z,46.52
2023-03-15T08:27:55.613Z,46.52
2023-03-15T08:30:22.513Z,46.53
2023-03-15T08:32:50.453Z,46.09
2023-03-15T08:35:17.331Z,46.07
2023-03-15T08:37:48.161Z,46.50
2023-03-15T08:40:18.960Z,46.78
2023-03-15T08:42:45.870Z,46.70
2023-03-15T08:45:12.906Z,46.67
2023-03-15T08:47:39.307Z,46.88
2023-03-15T08:50:09.133Z,46.35
2023-03-15T08:52:35.637Z,46.58
2023-03-15T08:55:03.001Z,46.90
2023-03-15T08:57:29.677Z,46.36
2023-03-15T08:59:56.101Z,46.35
2023-03-15T09:02:23.451Z,46.43
2023-03-15T09:04:53.805Z,46.79
2023-03-15T09:07:21.658Z,46.90
2023-03-15T09:09:48.620Z,46.51
2023-03-15T09:12:19.025Z,46.26
2023-03-15T09:14:45.265Z,46.22
2023-03-15T09:17:12.391Z,45.73
2023-03-15T09:19:40.903Z,46.08
2023-03-15T09:22:16.296Z,46.13
2023-03-15T09:24:50.475Z,45.62
2023-03-15T09:27:18.757Z,45.78
2023-03-15T09:29:45.264Z,45.73
2023-03-15T09:32:11.971Z,44.75
2023-03-15T09:34:41.831Z,45.03
2023-03-15T09:37:14.986Z,44.89
2023-03-15T09:39:41.493Z,45.58
2023-03-15T09:42:14.663Z,45.55
2023-03-15T09:44:46.307Z,45.46
2023-03-15T09:47:20.601Z,44.58
2023-03-15T09:49:53.971Z,45.02
2023-03-15T09:52:32.350Z,45.07
2023-03-15T09:55:21.782Z,45.21
2023-03-15T09:57:57.502Z,45.43
2023-03-15T10:00:46.466Z,45.61
2023-03-15T10:03:23.138Z,45.25
2023-03-15T10:05:55.537Z,45.10
2023-03-15T10:08:23.502Z,45.40
2023-03-15T10:10:57.065Z,44.86
2023-03-15T10:13:46.669Z,44.06
2023-03-15T10:16:21.769Z,44.70
2023-03-15T10:19:04.682Z,45.46
2023-03-15T10:21:38.802Z,44.76
2023-03-15T10:24:09.418Z,44.85
2023-03-15T10:26:37.422Z,43.92
2023-03-15T10:29:09.364Z,44.57
2023-03-15T10:31:44.536Z,44.82
2023-03-15T10:34:13.309Z,43.86
2023-03-15T10:36:50.898Z,44.55
2023-03-15T10:39:17.451Z,44.42
2023-03-15T10:41:45.316Z,43.71
2023-03-15T10:44:13.698Z,44.35
2023-03-15T10:46:40.151Z,44.56
2023-03-15T10:49:10.605Z,44.75
2023-03-15T10:51:43.203Z,44.21
2023-03-15T10:54:14.996Z,42.88
2023-03-15T10:56:46.925Z,43.64
2023-03-15T10:59:18.654Z,43.13
2023-03-15T11:01:54.636Z,43.25
2023-03-15T11:04:27.628Z,42.51
2023-03-15T11:07:02.956Z,42.88
2023-03-15T11:09:39.708Z,42.36
2023-03-15T11:12:07.310Z,42.82
2023-03-15T11:14:35.209Z,42.19
2023-03-15T11:17:03.567Z,42.31
2023-03-15T11:19:31.593Z,42.97
2023-03-15T11:21:59.801Z,42.75
2023-03-15T11:24:27.788Z,41.89
2023-03-15T11:26:56.019Z,42.55
2023-03-15T11:29:32.714Z,41.69
2023-03-15T11:32:00.811Z,41.42
2023-03-15T11:34:39.136Z,42.04
2023-03-15T11:37:12.131Z,42.26
2023-03-15T11:39:45.581Z,42.88
2023-03-15T11:42:15.992Z,41.60
2023-03-15T11:44:47.580Z,42.46
2023-03-15T11:47:32.576Z,41.54
2023-03-15T11:49:59.332Z,42.29
2023-03-15T11:52:27.235Z,42.68
2023-03-15T11:55:00.931Z,40.00
2023-03-15T11:57:33.435Z,40.27
2023-03-15T12:00:19.852Z,41.19
2023-03-15T12:02:51.044Z,40.09
2023-03-15T12:05:36.106Z,40.07
2023-03-15T12:08:20.411Z,39.60
2023-03-15T12:10:47.871Z,36.87
2023-03-15T12:13:18.964Z,38.81
2023-03-15T12:15:47.660Z,39.30
2023-03-15T12:18:16.484Z,40.71
2023-03-15T12:20:48.507Z,40.42
2023-03-15T12:23:21.467Z,40.75
2023-03-15T12:25:55.583Z,41.24
2023-03-15T12:28:45.321Z,41.19
2023-03-15T12:31:16.982Z,34.69
2023-03-15T12:33:45.523Z,38.68
2023-03-15T12:36:18.945Z,39.55
2023-03-15T12:38:53.628Z,38.98
2023-03-15T12:41:35.341Z,39.56
2023-03-15T12:44:20.292Z,40.29
2023-03-15T12:46:46.857Z,40.13
2023-03-15T12:49:23.771Z,39.72
2023-03-15T12:52:01.361Z,40.20
2023-03-15T12:54:50.046Z,40.29
2023-03-15T12:57:39.718Z,36.48
2023-03-15T13:00:15.528Z,38.94
2023-03-15T13:02:46.753Z,39.83
2023-03-15T13:05:16.590Z,40.15
2023-03-15T13:07:52.612Z,39.44
2023-03-15T13:10:22.037Z,40.52
2023-03-15T13:13:06.728Z,37.29
2023-03-15T13:15:43.991Z,39.85
2023-03-15T13:18:24.133Z,40.19
2023-03-15T13:20:50.343Z,37.99
2023-03-15T13:23:18.616Z,39.49
2023-03-15T13:25:52.516Z,36.82
2023-03-15T13:28:23.510Z,37.42
2023-03-15T13:30:52.457Z,38.85
2023-03-15T13:33:30.060Z,39.20
2023-03-15T13:35:58.601Z,38.88
2023-03-15T13:38:29.609Z,37.46
2023-03-15T13:40:56.797Z,37.08
2023-03-15T13:43:33.185Z,38.58
2023-03-15T13:45:59.942Z,39.22
2023-03-15T13:48:27.022Z,39.67
2023-03-15T13:50:55.087Z,39.45
2023-03-15T13:53:35.646Z,39.20
2023-03-15T13:56:10.169Z,39.62
2023-03-15T13:58:38.518Z,38.07
2023-03-15T14:01:07.106Z,38.04
2023-03-15T14:03:33.652Z,38.85
2023-03-15T14:06:00.052Z,38.63
2023-03-15T14:08:31.430Z,39.13
2023-03-15T14:10:58.979Z,38.16
2023-03-15T14:13:26.678Z,34.55
2023-03-15T14:15:58.057Z,36.68
2023-03-15T14:18:44.603Z,37.48
2023-03-15T14:21:14.904Z,38.03
2023-03-15T14:23:45.713Z,38.79
2023-03-15T14:26:19.719Z,38.36
2023-03-15T14:28:53.265Z,37.88
2023-03-15T14:31:23.253Z,38.28
2023-03-15T14:34:00.209Z,39.46
2023-03-15T14:36:31.673Z,39.54
2023-03-15T14:38:58.481Z,39.31
2023-03-15T14:41:28.228Z,39.33
2023-03-15T14:43:54.812Z,39.34
2023-03-15T14:46:21.742Z,38.95
2023-03-15T14:48:49.336Z,38.37
2023-03-15T14:51:17.075Z,38.81
2023-03-15T14:53:43.698Z,38.84
2023-03-15T14:56:11.140Z,38.88
2023-03-15T14:58:37.497Z,38.33
2023-03-15T15:01:06.601Z,36.11
2023-03-15T15:03:35.586Z,37.96
2023-03-15T15:06:02.585Z,37.85
2023-03-15T15:08:31.042Z,36.28
2023-03-15T15:10:58.617Z,35.66
2023-03-15T15:13:26.524Z,36.11
2023-03-15T15:15:56.892Z,35.44
2023-03-15T15:18:24.698Z,36.07
2023-03-15T15:20:54.232Z,37.22
2023-03-15T15:23:22.215Z,35.98
2023-03-15T15:25:50.674Z,36.72
2023-03-15T15:28:33.277Z,36.38
2023-03-15T15:31:00.754Z,35.59
2023-03-15T15:33:27.152Z,36.99
2023-03-15T15:35:54.572Z,36.73
2023-03-15T15:38:33.346Z,36.23
2023-03-15T15:41:01.010Z,36.19
2023-03-15T15:43:27.519Z,36.77
2023-03-15T15:45:54.306Z,37.22
2023-03-15T15:48:20.681Z,37.02
2023-03-15T15:50:47.475Z,37.18
2023-03-15T15:53:17.024Z,37.77
2023-03-15T15:55:44.242Z,38.03
2023-03-15T15:58:12.447Z,37.86
2023-03-15T16:00:38.749Z,38.41
2023-03-15T16:03:15.115Z,38.19
2023-03-15T16:05:43.950Z,38.56
2023-03-15T16:08:20.063Z,38.29
2023-03-15T16:10:46.347Z,38.17
2023-03-15T16:13:13.678Z,38.76
2023-03-15T16:15:42.462Z,38.44
2023-03-15T16:18:12.470Z,38.37
2023-03-15T16:20:40.406Z,38.01
2023-03-15T16:23:07.086Z,38.09
2023-03-15T16:25:35.686Z,38.45
2023-03-15T16:28:03.317Z,38.77
2023-03-15T16:30:30.972Z,38.37
2023-03-15T16:32:57.454Z,38.89
2023-03-15T16:35:35.084Z,38.62
2023-03-15T16:38:02.180Z,38.82
2023-03-15T16:40:30.797Z,39.06
2023-03-15T16:42:57.487Z,38.13
2023-03-15T16:45:24.580Z,38.54
2023-03-15T16:47:51.251Z,38.43
2023-03-15T16:50:18.344Z,38.67
2023-03-15T16:52:46.097Z,38.56
2023-03-15T16:55:18.018Z,38.91
2023-03-15T16:57:44.348Z,38.96
2023-03-15T17:00:17.702Z,39.18
2023-03-15T17:02:47.999Z,38.76
2023-03-15T17:05:19.881Z,38.96
2023-03-15T17:07:50.302Z,39.11
2023-03-15T17:10:25.835Z,39.24
2023-03-15T17:12:53.018Z,38.97
2023-03-15T17:15:21.983Z,38.95
2023-03-15T17:17:49.813Z,39.12
2023-03-15T17:20:21.829Z,39.22
2023-03-15T17:22:51.786Z,38.89
2023-03-15T17:25:19.211Z,38.86
2023-03-15T17:27:47.126Z,38.85
2023-03-15T17:30:33.772Z,39.41
2023-03-15T17:33:00.999Z,39.16
2023-03-15T17:35:31.699Z,39.31
2023-03-15T17:37:57.970Z,38.99
2023-03-15T17:40:26.610Z,39.03
2023-03-15T17:42:54.319Z,39.82
2023-03-15T17:45:28.112Z,39.52
2023-03-15T17:47:54.456Z,39.80
2023-03-15T17:50:22.158Z,39.82
2023-03-15T17:52:51.279Z,39.54
2023-03-15T17:55:18.692Z,39.88
2023-03-15T17:57:54.030Z,39.93
2023-03-15T18:00:22.146Z,39.47
2023-03-15T18:02:55.661Z,39.30
2023-03-15T18:05:25.973Z,39.56
2023-03-15T18:08:00.502Z,39.21
2023-03-15T18:10:31.511Z,39.25
2023-03-15T18:12:59.292Z,39.75
2023-03-15T18:15:25.599Z,39.99
2023-03-15T18:17:52.104Z,39.66
2023-03-15T18:20:19.106Z,40.02
2023-03-15T18:22:45.389Z,40.21
2023-03-15T18:25:25.438Z,40.32
2023-03-15T18:27:52.237Z,40.01
2023-03-15T18:30:20.697Z,39.58
2023-03-15T18:32:48.432Z,39.90
2023-03-15T18:35:23.189Z,39.65
2023-03-15T18:37:49.488Z,39.93
2023-03-15T18:40:18.548Z,39.89
2023-03-15T18:42:45.494Z,39.79
2023-03-15T18:45:18.433Z,40.24
2023-03-15T18:47:45.332Z,40.32
2023-03-15T18:50:12.455Z,40.36
2023-03-15T18:52:39.215Z,40.50
2023-03-15T18:55:07.705Z,40.77
2023-03-15T18:57:34.925Z,40.66
2023-03-15T19:00:01.388Z,40.57
2023-03-15T19:02:27.846Z,40.73
2023-03-15T19:04:57.153Z,40.40
2023-03-15T19:07:24.415Z,41.00
2023-03-15T19:09:52.557Z,40.81
2023-03-15T19:12:18.879Z,40.64
2023-03-15T19:14:46.690Z,40.71
2023-03-15T19:17:13.525Z,40.76
2023-03-15T19:19:40.027Z,40.60
2023-03-15T19:22:06.371Z,40.45
2023-03-15T19:24:33.294Z,40.87
2023-03-15T19:26:59.867Z,40.84
2023-03-15T19:29:27.638Z,40.46
2023-03-15T19:31:55.288Z,40.93
2023-03-15T19:34:22.496Z,40.70
2023-03-15T19:36:48.997Z,40.85
2023-03-15T19:39:15.278Z,40.98
2023-03-15T19:41:42.888Z,40.79
2023-03-15T19:44:09.151Z,40.95
2023-03-15T19:46:35.462Z,41.11
2023-03-15T19:49:02.281Z,40.77
2023-03-15T19:51:28.931Z,41.12
2023-03-15T19:53:56.425Z,41.08
2023-03-15T19:56:23.077Z,41.32
2023-03-15T19:58:49.584Z,41.19
2023-03-15T20:01:16.372Z,41.27
2023-03-15T20:03:42.923Z,41.25
2023-03-15T20:06:12.533Z,41.37
2023-03-15T20:08:40.317Z,41.51
2023-03-15T20:11:06.941Z,41.28
2023-03-15T20:13:37.222Z,41.44
2023-03-15T20:16:06.559Z,41.12
2023-03-15T20:18:32.942Z,41.72
2023-03-15T20:20:59.689Z,41.46
2023-03-15T20:23:26.130Z,41.41
2023-03-15T20:25:52.617Z,41.65
2023-03-15T20:28:19.305Z,41.73
2023-03-15T20:30:45.591Z,41.72
2023-03-15T20:33:11.989Z,41.28
2023-03-15T20:35:38.403Z,41.40
2023-03-15T20:38:08.061Z,41.73
2023-03-15T20:40:35.720Z,41.60
2023-03-15T20:43:02.657Z,41.70
2023-03-15T20:45:29.066Z,41.96
2023-03-15T20:47:55.448Z,41.79
2023-03-15T20:50:22.198Z,41.97
2023-03-15T20:52:50.962Z,41.84
2023-03-15T20:55:17.454Z,41.70
2023-03-15T20:57:43.887Z,41.67
2023-03-15T21:00:17.146Z,41.77
2023-03-15T21:02:44.063Z,41.99
2023-03-15T21:05:10.684Z,41.93
2023-03-15T21:07:37.065Z,41.76
2023-03-15T21:10:03.629Z,41.98
2023-03-15T21:12:30.613Z,41.88
2023-03-15T21:14:56.949Z,41.91
2023-03-15T21:17:23.264Z,41.95
2023-03-15T21:19:49.756Z,41.52
2023-03-15T21:22:16.074Z,41.87
2023-03-15T21:24:54.702Z,41.82
2023-03-15T21:27:22.601Z,41.74
2023-03-15T21:29:48.821Z,41.68
2023-03-15T21:32:15.102Z,41.75
2023-03-15T21:34:41.373Z,41.62
2023-03-15T21:37:07.623Z,41.74
2023-03-15T21:39:34.334Z,41.49
2023-03-15T21:42:00.813Z,41.45
2023-03-15T21:44:27.143Z,41.88
2023-03-15T21:46:53.774Z,41.87
2023-03-15T21:49:20.104Z,41.74
2023-03-15T21:51:46.392Z,41.62
2023-03-15T21:54:14.410Z,41.61
2023-03-15T21:56:41.416Z,41.69
2023-03-15T21:59:07.742Z,41.64
2023-03-15T22:01:34.266Z,41.80
2023-03-15T22:04:00.793Z,41.72
2023-03-15T22:06:27.430Z,41.80
2023-03-15T22:08:53.842Z,41.54
2023-03-15T22:11:22.350Z,41.46
2023-03-15T22:13:48.770Z,41.63
2023-03-15T22:16:15.086Z,41.58
2023-03-15T22:18:41.497Z,41.46
2023-03-15T22:21:07.795Z,41.57
2023-03-15T22:23:36.522Z,41.57
2023-03-15T22:26:02.744Z,41.35
2023-03-15T22:28:31.127Z,41.71
2023-03-15T22:30:57.779Z,41.40
2023-03-15T22:33:24.368Z,41.74
2023-03-15T22:35:55.512Z,41.18
2023-03-15T22:38:22.770Z,41.62
2023-03-15T22:40:49.040Z,41.68
2023-03-15T22:43:15.421Z,41.94
2023-03-15T22:45:41.706Z,41.56
2023-03-15T22:48:10.525Z,41.76
2023-03-15T22:50:36.807Z,41.90
2023-03-15T22:53:03.285Z,41.50
2023-03-15T22:55:30.631Z,41.51
2023-03-15T22:57:57.149Z,41.37
2023-03-15T23:00:26.502Z,41.51
2023-03-15T23:02:53.074Z,41.49
2023-03-15T23:05:19.833Z,41.32
2023-03-15T23:07:46.246Z,41.35
2023-03-15T23:10:13.438Z,41.46
2023-03-15T23:12:39.738Z,41.56
2023-03-15T23:15:06.540Z,41.80
2023-03-15T23:17:32.873Z,41.88
2023-03-15T23:19:59.267Z,41.39
2023-03-15T23:22:26.031Z,41.15
2023-03-15T23:24:52.786Z,41.76
2023-03-15T23:27:19.073Z,41.48
2023-03-15T23:29:54.043Z,41.41
2023-03-15T23:32:21.388Z,41.92
2023-03-15T23:35:06.613Z,41.41
2023-03-15T23:37:33.345Z,41.62
2023-03-15T23:39:59.675Z,41.65
2023-03-15T23:42:27.470Z,41.45
2023-03-15T23:44:56.905Z,41.96
2023-03-15T23:47:23.987Z,42.02
2023-03-15T23:49:51.116Z,42.17
2023-03-15T23:52:25.464Z,42.02
2023-03-15T23:54:53.745Z,41.70
2023-03-15T23:57:20.780Z,41.39
2023-03-15T23:59:47.368Z,41.66
